sensor_id;sensor_type;location;lat;lon;timestamp;temperature;humidity
19665;DHT22;9980;51.020;7.772;2023-02-15T00:00:13;2.70;99.90
19665;DHT22;9980;51.020;7.772;2023-02-15T00:02:40;2.70;99.90
19665;DHT22;9980;51.020;7.772;2023-02-15T00:05:08;2.70;99.90
19665;DHT22;9980;51.020;7.772;2023-02-15T00:07:35;2.70;99.90
19665;DHT22;9980;51.020;7.772;2023-02-15T00:10:03;2.70;99.90
19665;DHT22;9980;51.020;7.772;2023-02-15T00:12:31;2.60;99.90
19665;DHT22;9980;51.020;7.772;2023-02-15T00:14:58;2.60;99.90
19665;DHT22;9980;51.020;7.772;2023-02-15T00:17:28;2.60;99.90
19665;DHT22;9980;51.020;7.772;2023-02-15T00:19:55;2.60;99.90
19665;DHT22;9980;51.020;7.772;2023-02-15T00:22:22;2.50;99.90
19665;DHT22;9980;51.020;7.772;2023-02-15T00:24:49;2.50;99.90
19665;DHT22;9980;51.020;7.772;2023-02-15T00:27:16;2.50;99.90
19665;DHT22;9980;51.020;7.772;2023-02-15T00:29:47;2.50;99.90
19665;DHT22;9980;51.020;7.772;2023-02-15T00:32:14;2.40;99.90
19665;DHT22;9980;51.020;7.772;2023-02-15T00:34:43;2.50;99.90
19665;DHT22;9980;51.020;7.772;2023-02-15T00:37:12;2.40;99.90
19665;DHT22;9980;51.020;7.772;2023-02-15T00:39:46;2.40;99.90
19665;DHT22;9980;51.020;7.772;2023-02-15T00:42:13;2.40;99.90
19665;DHT22;9980;51.020;7.772;2023-02-15T00:44:40;2.40;99.90
19665;DHT22;9980;51.020;7.772;2023-02-15T00:47:07;2.30;99.90
19665;DHT22;9980;51.020;7.772;2023-02-15T00:49:34;2.40;99.90
19665;DHT22;9980;51.020;7.772;2023-02-15T00:52:01;2.30;99.90
19665;DHT22;9980;51.020;7.772;2023-02-15T00:54:28;2.30;99.90
19665;DHT22;9980;51.020;7.772;2023-02-15T00:56:56;2.20;99.90
19665;DHT22;9980;51.020;7.772;2023-02-15T00:59:23;2.30;99.90
19665;DHT22;9980;51.020;7.772;2023-02-15T01:01:50;2.20;99.90
19665;DHT22;9980;51.020;7.772;2023-02-15T01:04:18;2.20;99.90
19665;DHT22;9980;51.020;7.772;2023-02-15T01:06:45;2.20;99.90
19665;DHT22;9980;51.020;7.772;2023-02-15T01:09:13;2.10;99.90
19665;DHT22;9980;51.020;7.772;2023-02-15T01:11:40;2.10;99.90
19665;DHT22;9980;51.020;7.772;2023-02-15T01:14:09;2.10;99.90
19665;DHT22;9980;51.020;7.772;2023-02-15T01:16:37;2.10;99.90
19665;DHT22;9980;51.020;7.772;2023-02-15T01:19:05;2.10;99.90
19665;DHT22;9980;51.020;7.772;2023-02-15T01:21:33;2.00;99.90
19665;DHT22;9980;51.020;7.772;2023-02-15T01:24:02;2.00;99.90
19665;DHT22;9980;51.020;7.772;2023-02-15T01:26:29;2.00;99.90
19665;DHT22;9980;51.020;7.772;2023-02-15T01:28:57;2.00;99.90
19665;DHT22;9980;51.020;7.772;2023-02-15T01:31:25;2.00;99.90
19665;DHT22;9980;51.020;7.772;2023-02-15T01:33:55;2.00;99.90
19665;DHT22;9980;51.020;7.772;2023-02-15T01:36:22;1.90;99.90
19665;DHT22;9980;51.020;7.772;2023-02-15T01:38:51;1.90;99.90
19665;DHT22;9980;51.020;7.772;2023-02-15T01:41:18;1.90;99.90
19665;DHT22;9980;51.020;7.772;2023-02-15T01:44:00;1.90;99.90
19665;DHT22;9980;51.020;7.772;2023-02-15T01:46:35;1.90;99.90
19665;DHT22;9980;51.020;7.772;2023-02-15T01:49:16;1.80;99.90
19665;DHT22;9980;51.020;7.772;2023-02-15T01:51:49;1.80;99.90
19665;DHT22;9980;51.020;7.772;2023-02-15T01:54:25;1.80;99.90
19665;DHT22;9980;51.020;7.772;2023-02-15T01:57:02;1.80;99.90
19665;DHT22;9980;51.020;7.772;2023-02-15T01:59:33;1.80;99.90
19665;DHT22;9980;51.020;7.772;2023-02-15T02:02:04;1.70;99.90
19665;DHT22;9980;51.020;7.772;2023-02-15T02:04:47;1.70;99.90
19665;DHT22;9980;51.020;7.772;2023-02-15T02:07:20;1.70;99.90
19665;DHT22;9980;51.020;7.772;2023-02-15T02:09:49;1.60;99.90
19665;DHT22;9980;51.020;7.772;2023-02-15T02:12:17;1.60;99.90
19665;DHT22;9980;51.020;7.772;2023-02-15T02:14:48;1.60;99.90
19665;DHT22;9980;51.020;7.772;2023-02-15T02:32:17;1.50;99.90
19665;DHT22;9980;51.020;7.772;2023-02-15T02:35:11;1.40;99.90
19665;DHT22;9980;51.020;7.772;2023-02-15T02:38:05;1.40;99.90
19665;DHT22;9980;51.020;7.772;2023-02-15T02:44:29;1.30;99.90
19665;DHT22;9980;51.020;7.772;2023-02-15T02:47:16;1.30;99.90
19665;DHT22;9980;51.020;7.772;2023-02-15T02:49:45;1.30;99.90
19665;DHT22;9980;51.020;7.772;2023-02-15T02:52:44;1.30;99.90
19665;DHT22;9980;51.020;7.772;2023-02-15T02:55:17;1.20;99.90
19665;DHT22;9980;51.020;7.772;2023-02-15T02:58:05;1.20;99.90
19665;DHT22;9980;51.020;7.772;2023-02-15T03:00:49;1.20;99.90
19665;DHT22;9980;51.020;7.772;2023-02-15T03:06:27;1.10;99.90
19665;DHT22;9980;51.020;7.772;2023-02-15T03:09:14;1.10;99.90
19665;DHT22;9980;51.020;7.772;2023-02-15T03:11:49;1.10;99.90
19665;DHT22;9980;51.020;7.772;2023-02-15T03:14:18;1.10;99.90
19665;DHT22;9980;51.020;7.772;2023-02-15T03:16:47;1.00;99.90
19665;DHT22;9980;51.020;7.772;2023-02-15T03:19:23;1.00;99.90
19665;DHT22;9980;51.020;7.772;2023-02-15T03:21:59;1.00;99.90
19665;DHT22;9980;51.020;7.772;2023-02-15T03:24:57;1.00;99.90
19665;DHT22;9980;51.020;7.772;2023-02-15T03:27:51;1.00;99.90
19665;DHT22;9980;51.020;7.772;2023-02-15T03:30:22;0.90;99.90
19665;DHT22;9980;51.020;7.772;2023-02-15T03:32:54;0.90;99.90
19665;DHT22;9980;51.020;7.772;2023-02-15T03:35:26;0.90;99.90
19665;DHT22;9980;51.020;7.772;2023-02-15T03:38:01;0.90;99.90
19665;DHT22;9980;51.020;7.772;2023-02-15T03:40:42;0.90;99.90
19665;DHT22;9980;51.020;7.772;2023-02-15T03:43:53;0.90;99.90
19665;DHT22;9980;51.020;7.772;2023-02-15T03:49:20;0.80;99.90
19665;DHT22;9980;51.020;7.772;2023-02-15T03:51:52;0.80;99.90
19665;DHT22;9980;51.020;7.772;2023-02-15T03:54:28;0.80;99.90
19665;DHT22;9980;51.020;7.772;2023-02-15T04:00:22;0.80;99.90
19665;DHT22;9980;51.020;7.772;2023-02-15T04:03:37;0.70;99.90
19665;DHT22;9980;51.020;7.772;2023-02-15T04:06:06;0.70;99.90
19665;DHT22;9980;51.020;7.772;2023-02-15T04:08:33;0.70;99.90
19665;DHT22;9980;51.020;7.772;2023-02-15T04:11:18;0.70;99.90
19665;DHT22;9980;51.020;7.772;2023-02-15T04:13:45;0.70;99.90
19665;DHT22;9980;51.020;7.772;2023-02-15T04:16:12;0.60;99.90
19665;DHT22;9980;51.020;7.772;2023-02-15T04:18:41;0.60;99.90
19665;DHT22;9980;51.020;7.772;2023-02-15T04:21:30;0.60;99.90
19665;DHT22;9980;51.020;7.772;2023-02-15T04:24:16;0.60;99.90
19665;DHT22;9980;51.020;7.772;2023-02-15T04:27:02;0.60;99.90
19665;DHT22;9980;51.020;7.772;2023-02-15T04:29:31;0.60;99.90
19665;DHT22;9980;51.020;7.772;2023-02-15T04:32:00;0.50;99.90
19665;DHT22;9980;51.020;7.772;2023-02-15T04:34:28;0.50;99.90
19665;DHT22;9980;51.020;7.772;2023-02-15T04:36:55;0.50;99.90
19665;DHT22;9980;51.020;7.772;2023-02-15T04:39:22;0.50;99.90
19665;DHT22;9980;51.020;7.772;2023-02-15T04:41:49;0.50;99.90
19665;DHT22;9980;51.020;7.772;2023-02-15T04:44:16;0.40;99.90
19665;DHT22;9980;51.020;7.772;2023-02-15T04:46:43;0.40;99.90
19665;DHT22;9980;51.020;7.772;2023-02-15T04:49:10;0.40;99.90
19665;DHT22;9980;51.020;7.772;2023-02-15T04:51:38;0.40;99.90
19665;DHT22;9980;51.020;7.772;2023-02-15T04:54:04;0.40;99.90
19665;DHT22;9980;51.020;7.772;2023-02-15T04:56:31;0.40;99.90
19665;DHT22;9980;51.020;7.772;2023-02-15T04:59:00;0.40;99.90
19665;DHT22;9980;51.020;7.772;2023-02-15T05:01:27;0.40;99.90
19665;DHT22;9980;51.020;7.772;2023-02-15T05:03:54;0.30;99.90
19665;DHT22;9980;51.020;7.772;2023-02-15T05:06:21;0.30;99.90
19665;DHT22;9980;51.020;7.772;2023-02-15T05:08:48;0.30;99.90
19665;DHT22;9980;51.020;7.772;2023-02-15T05:11:15;0.30;99.90
19665;DHT22;9980;51.020;7.772;2023-02-15T05:13:42;0.30;99.90
19665;DHT22;9980;51.020;7.772;2023-02-15T05:16:09;0.30;99.90
19665;DHT22;9980;51.020;7.772;2023-02-15T05:18:36;0.20;99.90
19665;DHT22;9980;51.020;7.772;2023-02-15T05:21:04;0.20;99.90
19665;DHT22;9980;51.020;7.772;2023-02-15T05:23:31;0.20;99.90
19665;DHT22;9980;51.020;7.772;2023-02-15T05:25:58;0.20;99.90
19665;DHT22;9980;51.020;7.772;2023-02-15T05:28:43;0.20;99.90
19665;DHT22;9980;51.020;7.772;2023-02-15T05:31:16;0.20;99.90
19665;DHT22;9980;51.020;7.772;2023-02-15T05:33:45;0.20;99.90
19665;DHT22;9980;51.020;7.772;2023-02-15T05:36:13;0.10;99.90
19665;DHT22;9980;51.020;7.772;2023-02-15T05:38:40;0.20;99.90
19665;DHT22;9980;51.020;7.772;2023-02-15T05:41:09;0.10;99.90
19665;DHT22;9980;51.020;7.772;2023-02-15T05:43:38;0.10;99.90
19665;DHT22;9980;51.020;7.772;2023-02-15T05:46:06;0.10;99.90
19665;DHT22;9980;51.020;7.772;2023-02-15T05:48:34;0.10;99.90
19665;DHT22;9980;51.020;7.772;2023-02-15T05:53:37;0.00;99.90
19665;DHT22;9980;51.020;7.772;2023-02-15T05:56:07;0.00;99.90
19665;DHT22;9980;51.020;7.772;2023-02-15T05:58:38;0.00;99.90
19665;DHT22;9980;51.020;7.772;2023-02-15T06:01:14;0.00;99.90
19665;DHT22;9980;51.020;7.772;2023-02-15T06:03:42;0.00;99.90
19665;DHT22;9980;51.020;7.772;2023-02-15T06:06:10;0.00;99.90
19665;DHT22;9980;51.020;7.772;2023-02-15T06:08:37;0.00;99.90
19665;DHT22;9980;51.020;7.772;2023-02-15T06:11:05;0.00;99.90
19665;DHT22;9980;51.020;7.772;2023-02-15T06:13:33;-0.10;99.90
19665;DHT22;9980;51.020;7.772;2023-02-15T06:16:05;-0.10;99.90
19665;DHT22;9980;51.020;7.772;2023-02-15T06:18:32;-0.10;99.90
19665;DHT22;9980;51.020;7.772;2023-02-15T06:20:59;-0.10;99.90
19665;DHT22;9980;51.020;7.772;2023-02-15T06:23:26;-0.10;99.90
19665;DHT22;9980;51.020;7.772;2023-02-15T06:25:53;-0.10;99.90
19665;DHT22;9980;51.020;7.772;2023-02-15T06:28:20;-0.10;99.90
19665;DHT22;9980;51.020;7.772;2023-02-15T06:30:48;-0.10;99.90
19665;DHT22;9980;51.020;7.772;2023-02-15T06:33:15;-0.10;99.90
19665;DHT22;9980;51.020;7.772;2023-02-15T06:35:42;-0.20;99.90
19665;DHT22;9980;51.020;7.772;2023-02-15T06:38:09;-0.20;99.90
19665;DHT22;9980;51.020;7.772;2023-02-15T06:40:37;-0.20;99.90
19665;DHT22;9980;51.020;7.772;2023-02-15T06:43:04;-0.20;99.90
19665;DHT22;9980;51.020;7.772;2023-02-15T06:45:31;-0.20;99.90
19665;DHT22;9980;51.020;7.772;2023-02-15T06:47:58;-0.20;99.90
19665;DHT22;9980;51.020;7.772;2023-02-15T06:50:24;-0.20;99.90
19665;DHT22;9980;51.020;7.772;2023-02-15T06:52:58;-0.20;99.90
19665;DHT22;9980;51.020;7.772;2023-02-15T06:55:25;-0.20;99.90
19665;DHT22;9980;51.020;7.772;2023-02-15T06:57:52;-0.20;99.90
19665;DHT22;9980;51.020;7.772;2023-02-15T07:00:20;-0.20;99.90
19665;DHT22;9980;51.020;7.772;2023-02-15T07:02:55;-0.20;99.90
19665;DHT22;9980;51.020;7.772;2023-02-15T07:05:25;-0.20;99.90
19665;DHT22;9980;51.020;7.772;2023-02-15T07:07:58;-0.20;99.90
19665;DHT22;9980;51.020;7.772;2023-02-15T07:10:26;-0.20;99.90
19665;DHT22;9980;51.020;7.772;2023-02-15T07:12:54;-0.20;99.90
19665;DHT22;9980;51.020;7.772;2023-02-15T07:15:22;-0.20;99.90
19665;DHT22;9980;51.020;7.772;2023-02-15T07:17:49;-0.20;99.90
19665;DHT22;9980;51.020;7.772;2023-02-15T07:20:18;-0.20;99.90
19665;DHT22;9980;51.020;7.772;2023-02-15T07:22:47;-0.20;99.90
19665;DHT22;9980;51.020;7.772;2023-02-15T07:25:15;-0.20;99.90
19665;DHT22;9980;51.020;7.772;2023-02-15T07:27:43;-0.20;99.90
19665;DHT22;9980;51.020;7.772;2023-02-15T07:30:14;-0.20;99.90
19665;DHT22;9980;51.020;7.772;2023-02-15T07:32:43;-0.20;99.90
19665;DHT22;9980;51.020;7.772;2023-02-15T07:35:31;-0.20;99.90
19665;DHT22;9980;51.020;7.772;2023-02-15T07:37:59;-0.10;99.90
19665;DHT22;9980;51.020;7.772;2023-02-15T07:40:26;-0.10;99.90
19665;DHT22;9980;51.020;7.772;2023-02-15T07:42:57;-0.10;99.90
19665;DHT22;9980;51.020;7.772;2023-02-15T07:45:26;0.00;99.90
19665;DHT22;9980;51.020;7.772;2023-02-15T07:47:53;0.00;99.90
19665;DHT22;9980;51.020;7.772;2023-02-15T07:50:20;0.00;99.90
19665;DHT22;9980;51.020;7.772;2023-02-15T07:52:47;0.00;99.90
19665;DHT22;9980;51.020;7.772;2023-02-15T07:55:14;0.10;99.90
19665;DHT22;9980;51.020;7.772;2023-02-15T07:57:42;0.10;99.90
19665;DHT22;9980;51.020;7.772;2023-02-15T08:00:15;0.20;99.90
19665;DHT22;9980;51.020;7.772;2023-02-15T08:02:50;0.20;99.90
19665;DHT22;9980;51.020;7.772;2023-02-15T08:05:40;0.30;99.90
19665;DHT22;9980;51.020;7.772;2023-02-15T08:08:10;0.40;99.90
19665;DHT22;9980;51.020;7.772;2023-02-15T08:14:05;0.50;99.90
19665;DHT22;9980;51.020;7.772;2023-02-15T08:16:55;0.60;99.90
19665;DHT22;9980;51.020;7.772;2023-02-15T08:19:28;0.70;99.90
19665;DHT22;9980;51.020;7.772;2023-02-15T08:21:58;0.80;99.90
19665;DHT22;9980;51.020;7.772;2023-02-15T08:24:30;0.90;99.90
19665;DHT22;9980;51.020;7.772;2023-02-15T08:27:04;1.00;99.90
19665;DHT22;9980;51.020;7.772;2023-02-15T08:29:36;1.10;99.90
19665;DHT22;9980;51.020;7.772;2023-02-15T08:32:09;1.20;99.90
19665;DHT22;9980;51.020;7.772;2023-02-15T08:34:39;1.30;99.90
19665;DHT22;9980;51.020;7.772;2023-02-15T08:37:08;1.40;99.90
19665;DHT22;9980;51.020;7.772;2023-02-15T08:39:35;1.50;99.90
19665;DHT22;9980;51.020;7.772;2023-02-15T08:42:03;1.60;99.90
19665;DHT22;9980;51.020;7.772;2023-02-15T08:44:32;1.80;99.90
19665;DHT22;9980;51.020;7.772;2023-02-15T08:46:59;1.90;99.90
19665;DHT22;9980;51.020;7.772;2023-02-15T08:49:31;2.00;99.90
19665;DHT22;9980;51.020;7.772;2023-02-15T08:51:59;2.10;99.90
19665;DHT22;9980;51.020;7.772;2023-02-15T08:54:26;2.30;99.90
19665;DHT22;9980;51.020;7.772;2023-02-15T08:56:53;2.40;99.90
19665;DHT22;9980;51.020;7.772;2023-02-15T08:59:22;2.50;99.90
19665;DHT22;9980;51.020;7.772;2023-02-15T09:01:51;2.70;99.90
19665;DHT22;9980;51.020;7.772;2023-02-15T09:04:19;2.80;99.90
19665;DHT22;9980;51.020;7.772;2023-02-15T09:06:49;2.90;99.90
19665;DHT22;9980;51.020;7.772;2023-02-15T09:09:18;3.00;99.90
19665;DHT22;9980;51.020;7.772;2023-02-15T09:11:47;3.20;99.90
19665;DHT22;9980;51.020;7.772;2023-02-15T09:14:24;3.30;99.90
19665;DHT22;9980;51.020;7.772;2023-02-15T09:16:54;3.50;99.90
19665;DHT22;9980;51.020;7.772;2023-02-15T09:19:24;3.70;99.90
19665;DHT22;9980;51.020;7.772;2023-02-15T09:21:52;3.80;99.90
19665;DHT22;9980;51.020;7.772;2023-02-15T09:24:19;3.90;99.90
19665;DHT22;9980;51.020;7.772;2023-02-15T09:26:48;4.10;99.90
19665;DHT22;9980;51.020;7.772;2023-02-15T09:29:18;4.20;99.90
19665;DHT22;9980;51.020;7.772;2023-02-15T09:31:48;4.40;99.90
19665;DHT22;9980;51.020;7.772;2023-02-15T09:34:21;4.50;99.90
19665;DHT22;9980;51.020;7.772;2023-02-15T09:36:50;4.70;99.90
19665;DHT22;9980;51.020;7.772;2023-02-15T09:39:23;4.80;99.90
19665;DHT22;9980;51.020;7.772;2023-02-15T09:56:14;5.80;99.90
19665;DHT22;9980;51.020;7.772;2023-02-15T10:02:02;6.10;99.90
19665;DHT22;9980;51.020;7.772;2023-02-15T10:05:21;6.30;99.90
19665;DHT22;9980;51.020;7.772;2023-02-15T10:08:08;6.50;99.90
19665;DHT22;9980;51.020;7.772;2023-02-15T10:11:22;6.70;99.90
19665;DHT22;9980;51.020;7.772;2023-02-15T10:28:26;7.70;99.90
19665;DHT22;9980;51.020;7.772;2023-02-15T10:31:24;7.90;99.90
19665;DHT22;9980;51.020;7.772;2023-02-15T10:37:01;8.20;99.90
19665;DHT22;9980;51.020;7.772;2023-02-15T10:40:02;8.40;99.90
19665;DHT22;9980;51.020;7.772;2023-02-15T10:51:42;9.10;99.90
19665;DHT22;9980;51.020;7.772;2023-02-15T11:00:23;9.50;99.20
19665;DHT22;9980;51.020;7.772;2023-02-15T11:06:13;9.90;98.50
19665;DHT22;9980;51.020;7.772;2023-02-15T11:08:50;10.00;98.40
19665;DHT22;9980;51.020;7.772;2023-02-15T11:11:29;10.10;98.20
19665;DHT22;9980;51.020;7.772;2023-02-15T11:14:05;10.20;97.70
19665;DHT22;9980;51.020;7.772;2023-02-15T11:16:45;10.30;97.80
19665;DHT22;9980;51.020;7.772;2023-02-15T11:19:44;10.50;97.60
19665;DHT22;9980;51.020;7.772;2023-02-15T11:22:30;10.60;97.40
19665;DHT22;9980;51.020;7.772;2023-02-15T11:25:01;10.70;97.50
19665;DHT22;9980;51.020;7.772;2023-02-15T11:27:31;10.80;97.10
19665;DHT22;9980;51.020;7.772;2023-02-15T11:32:42;11.00;96.70
19665;DHT22;9980;51.020;7.772;2023-02-15T11:38:02;11.30;96.60
19665;DHT22;9980;51.020;7.772;2023-02-15T11:40:47;11.40;95.90
19665;DHT22;9980;51.020;7.772;2023-02-15T11:43:33;11.50;96.10
19665;DHT22;9980;51.020;7.772;2023-02-15T11:46:23;11.70;96.20
19665;DHT22;9980;51.020;7.772;2023-02-15T11:48:50;11.80;96.10
19665;DHT22;9980;51.020;7.772;2023-02-15T11:51:19;11.90;95.90
19665;DHT22;9980;51.020;7.772;2023-02-15T11:53:50;12.00;95.70
19665;DHT22;9980;51.020;7.772;2023-02-15T11:56:21;12.10;95.70
19665;DHT22;9980;51.020;7.772;2023-02-15T11:58:59;12.20;95.50
19665;DHT22;9980;51.020;7.772;2023-02-15T12:01:36;12.30;95.20
19665;DHT22;9980;51.020;7.772;2023-02-15T12:04:25;12.40;95.10
19665;DHT22;9980;51.020;7.772;2023-02-15T12:10:17;12.60;94.50
19665;DHT22;9980;51.020;7.772;2023-02-15T12:13:13;12.70;94.70
19665;DHT22;9980;51.020;7.772;2023-02-15T12:15:45;12.90;94.40
19665;DHT22;9980;51.020;7.772;2023-02-15T12:18:37;12.90;94.10
19665;DHT22;9980;51.020;7.772;2023-02-15T12:21:33;13.10;94.00
19665;DHT22;9980;51.020;7.772;2023-02-15T12:24:30;13.10;94.10
19665;DHT22;9980;51.020;7.772;2023-02-15T12:27:13;13.20;93.70
19665;DHT22;9980;51.020;7.772;2023-02-15T12:29:43;13.30;93.50
19665;DHT22;9980;51.020;7.772;2023-02-15T12:32:22;13.30;93.40
19665;DHT22;9980;51.020;7.772;2023-02-15T12:34:55;13.40;93.20
19665;DHT22;9980;51.020;7.772;2023-02-15T12:37:30;13.50;93.00
19665;DHT22;9980;51.020;7.772;2023-02-15T12:40:00;13.50;92.80
19665;DHT22;9980;51.020;7.772;2023-02-15T12:42:41;13.60;93.00
19665;DHT22;9980;51.020;7.772;2023-02-15T12:45:23;13.70;92.80
19665;DHT22;9980;51.020;7.772;2023-02-15T12:48:18;13.70;92.80
19665;DHT22;9980;51.020;7.772;2023-02-15T12:50:48;13.80;92.80
19665;DHT22;9980;51.020;7.772;2023-02-15T12:53:32;13.90;92.60
19665;DHT22;9980;51.020;7.772;2023-02-15T12:56:06;14.00;92.50
19665;DHT22;9980;51.020;7.772;2023-02-15T12:58:41;14.00;92.10
19665;DHT22;9980;51.020;7.772;2023-02-15T13:03:38;14.10;92.10
19665;DHT22;9980;51.020;7.772;2023-02-15T13:06:21;14.20;91.70
19665;DHT22;9980;51.020;7.772;2023-02-15T13:08:50;14.30;91.90
19665;DHT22;9980;51.020;7.772;2023-02-15T13:11:22;14.30;91.30
19665;DHT22;9980;51.020;7.772;2023-02-15T13:14:01;14.40;91.10
19665;DHT22;9980;51.020;7.772;2023-02-15T13:16:47;14.50;90.70
19665;DHT22;9980;51.020;7.772;2023-02-15T13:19:31;14.50;90.70
19665;DHT22;9980;51.020;7.772;2023-02-15T13:22:18;14.50;90.50
19665;DHT22;9980;51.020;7.772;2023-02-15T13:24:56;14.60;90.40
19665;DHT22;9980;51.020;7.772;2023-02-15T13:27:45;14.60;90.60
19665;DHT22;9980;51.020;7.772;2023-02-15T13:30:28;14.60;90.30
19665;DHT22;9980;51.020;7.772;2023-02-15T13:33:03;14.70;90.30
19665;DHT22;9980;51.020;7.772;2023-02-15T13:35:42;14.70;90.30
19665;DHT22;9980;51.020;7.772;2023-02-15T13:42:08;14.80;90.10
19665;DHT22;9980;51.020;7.772;2023-02-15T13:47:34;14.80;90.20
19665;DHT22;9980;51.020;7.772;2023-02-15T13:55:52;14.80;89.60
19665;DHT22;9980;51.020;7.772;2023-02-15T14:01:49;14.80;88.60
19665;DHT22;9980;51.020;7.772;2023-02-15T14:11:19;14.90;88.80
19665;DHT22;9980;51.020;7.772;2023-02-15T14:19:54;14.90;87.20
19665;DHT22;9980;51.020;7.772;2023-02-15T14:22:32;14.90;87.00
19665;DHT22;9980;51.020;7.772;2023-02-15T14:25:25;14.90;86.60
19665;DHT22;9980;51.020;7.772;2023-02-15T14:28:08;14.90;86.10
19665;DHT22;9980;51.020;7.772;2023-02-15T14:30:50;14.80;86.40
19665;DHT22;9980;51.020;7.772;2023-02-15T14:33:35;14.80;86.80
19665;DHT22;9980;51.020;7.772;2023-02-15T14:36:07;14.80;86.10
19665;DHT22;9980;51.020;7.772;2023-02-15T14:39:15;14.80;86.20
19665;DHT22;9980;51.020;7.772;2023-02-15T14:42:25;14.80;85.60
19665;DHT22;9980;51.020;7.772;2023-02-15T14:45:20;14.80;86.10
19665;DHT22;9980;51.020;7.772;2023-02-15T14:48:17;14.80;85.10
19665;DHT22;9980;51.020;7.772;2023-02-15T14:50:50;14.70;85.00
19665;DHT22;9980;51.020;7.772;2023-02-15T14:56:18;14.70;86.00
19665;DHT22;9980;51.020;7.772;2023-02-15T15:01:33;14.60;85.00
19665;DHT22;9980;51.020;7.772;2023-02-15T15:04:11;14.60;85.80
19665;DHT22;9980;51.020;7.772;2023-02-15T15:06:42;14.50;85.50
19665;DHT22;9980;51.020;7.772;2023-02-15T15:09:26;14.50;85.90
19665;DHT22;9980;51.020;7.772;2023-02-15T15:14:49;14.40;85.50
19665;DHT22;9980;51.020;7.772;2023-02-15T15:31:39;14.00;87.00
19665;DHT22;9980;51.020;7.772;2023-02-15T15:34:32;13.90;86.90
19665;DHT22;9980;51.020;7.772;2023-02-15T15:37:34;13.80;85.90
19665;DHT22;9980;51.020;7.772;2023-02-15T15:40:26;13.70;86.30
19665;DHT22;9980;51.020;7.772;2023-02-15T15:49:29;13.40;86.50
19665;DHT22;9980;51.020;7.772;2023-02-15T15:52:07;13.30;86.80
19665;DHT22;9980;51.020;7.772;2023-02-15T15:54:40;13.20;86.70
19665;DHT22;9980;51.020;7.772;2023-02-15T15:59:57;13.10;87.20
19665;DHT22;9980;51.020;7.772;2023-02-15T16:02:27;13.00;87.80
19665;DHT22;9980;51.020;7.772;2023-02-15T16:04:54;12.90;87.60
19665;DHT22;9980;51.020;7.772;2023-02-15T16:07:33;12.80;88.50
19665;DHT22;9980;51.020;7.772;2023-02-15T16:10:06;12.80;88.60
19665;DHT22;9980;51.020;7.772;2023-02-15T16:12:36;12.70;89.10
19665;DHT22;9980;51.020;7.772;2023-02-15T16:17:46;12.60;90.00
19665;DHT22;9980;51.020;7.772;2023-02-15T16:20:35;12.40;90.00
19665;DHT22;9980;51.020;7.772;2023-02-15T16:28:53;12.10;90.00
19665;DHT22;9980;51.020;7.772;2023-02-15T16:31:21;12.00;90.20
19665;DHT22;9980;51.020;7.772;2023-02-15T16:33:53;11.90;90.40
19665;DHT22;9980;51.020;7.772;2023-02-15T16:36:27;11.80;90.50
19665;DHT22;9980;51.020;7.772;2023-02-15T16:39:05;11.70;90.80
19665;DHT22;9980;51.020;7.772;2023-02-15T16:41:35;11.60;90.70
19665;DHT22;9980;51.020;7.772;2023-02-15T16:44:14;11.50;90.90
19665;DHT22;9980;51.020;7.772;2023-02-15T16:46:47;11.40;91.00
19665;DHT22;9980;51.020;7.772;2023-02-15T16:49:20;11.30;91.10
19665;DHT22;9980;51.020;7.772;2023-02-15T16:52:04;11.20;91.20
19665;DHT22;9980;51.020;7.772;2023-02-15T16:54:33;11.10;91.30
19665;DHT22;9980;51.020;7.772;2023-02-15T16:57:02;11.00;91.50
19665;DHT22;9980;51.020;7.772;2023-02-15T16:59:47;10.80;91.70
19665;DHT22;9980;51.020;7.772;2023-02-15T17:02:19;10.70;91.70
19665;DHT22;9980;51.020;7.772;2023-02-15T17:07:40;10.50;92.00
19665;DHT22;9980;51.020;7.772;2023-02-15T17:10:31;10.40;92.00
19665;DHT22;9980;51.020;7.772;2023-02-15T17:13:13;10.30;92.30
19665;DHT22;9980;51.020;7.772;2023-02-15T17:18:39;10.10;92.50
19665;DHT22;9980;51.020;7.772;2023-02-15T17:21:17;10.00;92.60
19665;DHT22;9980;51.020;7.772;2023-02-15T17:23:48;9.90;92.70
19665;DHT22;9980;51.020;7.772;2023-02-15T17:26:29;9.80;92.80
19665;DHT22;9980;51.020;7.772;2023-02-15T17:31:55;9.60;93.00
19665;DHT22;9980;51.020;7.772;2023-02-15T17:37:44;9.40;93.20
19665;DHT22;9980;51.020;7.772;2023-02-15T17:40:31;9.20;93.20
19665;DHT22;9980;51.020;7.772;2023-02-15T17:43:00;9.20;93.40
19665;DHT22;9980;51.020;7.772;2023-02-15T17:45:50;9.10;93.50
19665;DHT22;9980;51.020;7.772;2023-02-15T17:48:36;9.00;93.60
19665;DHT22;9980;51.020;7.772;2023-02-15T17:51:10;8.90;93.70
19665;DHT22;9980;51.020;7.772;2023-02-15T17:53:39;8.80;93.70
19665;DHT22;9980;51.020;7.772;2023-02-15T17:56:07;8.70;93.80
19665;DHT22;9980;51.020;7.772;2023-02-15T17:58:38;8.70;93.90
19665;DHT22;9980;51.020;7.772;2023-02-15T18:01:10;8.60;94.00
19665;DHT22;9980;51.020;7.772;2023-02-15T18:04:04;8.50;94.10
19665;DHT22;9980;51.020;7.772;2023-02-15T18:06:52;8.40;94.20
19665;DHT22;9980;51.020;7.772;2023-02-15T18:09:38;8.40;94.30
19665;DHT22;9980;51.020;7.772;2023-02-15T18:12:27;8.30;94.40
19665;DHT22;9980;51.020;7.772;2023-02-15T18:15:01;8.20;94.50
19665;DHT22;9980;51.020;7.772;2023-02-15T18:17:35;8.10;94.50
19665;DHT22;9980;51.020;7.772;2023-02-15T18:22:50;8.00;94.80
19665;DHT22;9980;51.020;7.772;2023-02-15T18:25:19;7.90;94.90
19665;DHT22;9980;51.020;7.772;2023-02-15T18:27:50;7.90;95.00
19665;DHT22;9980;51.020;7.772;2023-02-15T18:30:22;7.80;95.00
19665;DHT22;9980;51.020;7.772;2023-02-15T18:32:54;7.80;95.00
19665;DHT22;9980;51.020;7.772;2023-02-15T18:35:26;7.70;95.10
19665;DHT22;9980;51.020;7.772;2023-02-15T18:37:55;7.60;95.10
19665;DHT22;9980;51.020;7.772;2023-02-15T18:40:26;7.60;95.10
19665;DHT22;9980;51.020;7.772;2023-02-15T18:42:55;7.50;95.30
19665;DHT22;9980;51.020;7.772;2023-02-15T18:45:27;7.40;95.30
19665;DHT22;9980;51.020;7.772;2023-02-15T18:47:58;7.40;95.50
19665;DHT22;9980;51.020;7.772;2023-02-15T18:50:29;7.40;95.50
19665;DHT22;9980;51.020;7.772;2023-02-15T18:52:58;7.30;95.60
19665;DHT22;9980;51.020;7.772;2023-02-15T18:55:27;7.20;95.70
19665;DHT22;9980;51.020;7.772;2023-02-15T18:57:56;7.20;95.80
19665;DHT22;9980;51.020;7.772;2023-02-15T19:00:31;7.10;95.90
19665;DHT22;9980;51.020;7.772;2023-02-15T19:03:00;7.10;95.90
19665;DHT22;9980;51.020;7.772;2023-02-15T19:05:29;7.10;95.90
19665;DHT22;9980;51.020;7.772;2023-02-15T19:08:00;7.00;96.00
19665;DHT22;9980;51.020;7.772;2023-02-15T19:10:30;6.90;96.10
19665;DHT22;9980;51.020;7.772;2023-02-15T19:12:58;6.90;96.10
19665;DHT22;9980;51.020;7.772;2023-02-15T19:15:27;6.80;96.20
19665;DHT22;9980;51.020;7.772;2023-02-15T19:17:56;6.80;96.20
19665;DHT22;9980;51.020;7.772;2023-02-15T19:20:30;6.80;96.20
19665;DHT22;9980;51.020;7.772;2023-02-15T19:23:00;6.70;96.30
19665;DHT22;9980;51.020;7.772;2023-02-15T19:25:30;6.70;96.30
19665;DHT22;9980;51.020;7.772;2023-02-15T19:28:00;6.60;96.30
19665;DHT22;9980;51.020;7.772;2023-02-15T19:30:34;6.60;96.40
19665;DHT22;9980;51.020;7.772;2023-02-15T19:33:03;6.50;96.50
19665;DHT22;9980;51.020;7.772;2023-02-15T19:35:33;6.50;96.60
19665;DHT22;9980;51.020;7.772;2023-02-15T19:38:03;6.40;96.60
19665;DHT22;9980;51.020;7.772;2023-02-15T19:40:34;6.30;96.60